createdAt,value
2023-04-28T00:00:51.156Z,100999.41
2023-04-28T00:03:18.034Z,100989.09
2023-04-28T00:05:44.785Z,100995.06
2023-04-28T00:08:11.324Z,100985.97
2023-04-28T00:10:37.796Z,100986.72
2023-04-28T00:13:04.278Z,100985.16
2023-04-28T00:15:30.849Z,100982.75
2023-04-28T00:17:57.306Z,100974.47
2023-04-28T00:20:23.858Z,100976.84
2023-04-28T00:22:50.631Z,100965.75
2023-04-28T00:25:17.240Z,100957.03
2023-04-28T00:27:43.723Z,100958.59
2023-04-28T00:30:10.900Z,100961.38
2023-04-28T00:32:37.476Z,100948.72
2023-04-28T00:35:04.179Z,100949.50
2023-04-28T00:37:30.804Z,100949.09
2023-04-28T00:39:57.495Z,100941.59
2023-04-28T00:42:24.304Z,100932.47
2023-04-28T00:44:50.808Z,100930.53
2023-04-28T00:47:18.269Z,100934.47
2023-04-28T00:49:45.534Z,100934.09
2023-04-28T00:52:12.001Z,100934.88
2023-04-28T00:54:38.681Z,100934.47
2023-04-28T00:57:05.221Z,100926.16
2023-04-28T00:59:31.981Z,100917.47
2023-04-28T01:02:00.192Z,100919.84
2023-04-28T01:04:29.136Z,100921.41
2023-04-28T01:06:56.912Z,100932.50
2023-04-28T01:09:23.358Z,100926.56
2023-04-28T01:11:49.783Z,100928.16
2023-04-28T01:14:16.382Z,100933.28
2023-04-28T01:16:43.432Z,100923.78
2023-04-28T01:19:20.211Z,100926.59
2023-04-28T01:21:46.637Z,100916.69
2023-04-28T01:24:13.355Z,100917.50
2023-04-28T01:26:40.065Z,100912.34
2023-04-28T01:29:06.648Z,100923.03
2023-04-28T01:31:33.150Z,100916.28
2023-04-28T01:33:59.647Z,100909.16
2023-04-28T01:36:27.419Z,100904.03
2023-04-28T01:38:54.484Z,100895.31
2023-04-28T01:41:21.206Z,100888.97
2023-04-28T01:43:47.714Z,100891.38
2023-04-28T01:46:14.199Z,100892.94
2023-04-28T01:48:40.723Z,100891.38
2023-04-28T01:51:07.249Z,100900.44
2023-04-28T01:53:34.065Z,100905.22
2023-04-28T01:56:19.251Z,100901.66
2023-04-28T01:58:46.082Z,100904.03
2023-04-28T02:01:12.819Z,100912.34
2023-04-28T02:03:39.435Z,100909.56
2023-04-28T02:06:06.046Z,100911.16
2023-04-28T02:08:32.594Z,100898.91
2023-04-28T02:10:59.038Z,100894.56
2023-04-28T02:13:25.464Z,100885.06
2023-04-28T02:15:51.962Z,100887.44
2023-04-28T02:18:18.424Z,100893.78
2023-04-28T02:20:44.868Z,100889.41
2023-04-28T02:23:11.319Z,100893.38
2023-04-28T02:25:37.812Z,100883.09
2023-04-28T02:28:04.382Z,100877.56
2023-04-28T02:30:30.963Z,100886.69
2023-04-28T02:32:57.480Z,100881.13
2023-04-28T02:35:23.980Z,100877.97
2023-04-28T02:37:50.779Z,100873.22
2023-04-28T02:40:17.392Z,100874.81
2023-04-28T02:42:43.845Z,100870.84
2023-04-28T02:45:10.822Z,100868.47
2023-04-28T02:47:37.293Z,100872.03
2023-04-28T02:50:04.335Z,100870.84
2023-04-28T02:52:30.932Z,100868.09
2023-04-28T02:54:57.598Z,100871.66
2023-04-28T02:57:24.371Z,100860.56
2023-04-28T02:59:50.932Z,100859.78
2023-04-28T03:02:17.518Z,100862.53
2023-04-28T03:04:44.112Z,100862.53
2023-04-28T03:07:10.783Z,100864.91
2023-04-28T03:09:37.212Z,100862.91
2023-04-28T03:12:03.887Z,100862.13
2023-04-28T03:14:30.768Z,100857.00
2023-04-28T03:16:57.843Z,100850.25
2023-04-28T03:19:24.344Z,100855.41
2023-04-28T03:21:50.842Z,100851.06
2023-04-28T03:24:17.557Z,100841.19
2023-04-28T03:26:44.469Z,100839.19
2023-04-28T03:29:10.960Z,100841.19
2023-04-28T03:31:37.429Z,100840.00
2023-04-28T03:34:04.466Z,100827.72
2023-04-28T03:36:32.074Z,100822.59
2023-04-28T03:38:58.580Z,100823.78
2023-04-28T03:41:25.043Z,100822.59
2023-04-28T03:43:52.002Z,100826.16
2023-04-28T03:46:18.557Z,100822.59
2023-04-28T03:48:46.137Z,100809.94
2023-04-28T03:51:12.670Z,100800.84
2023-04-28T03:53:39.157Z,100781.50
2023-04-28T03:56:06.194Z,100790.97
2023-04-28T03:58:32.693Z,100792.16
2023-04-28T04:01:00.924Z,100783.84
2023-04-28T04:03:27.689Z,100786.63
2023-04-28T04:05:55.666Z,100788.22
2023-04-28T04:08:22.260Z,100781.50
2023-04-28T04:10:48.715Z,100776.34
2023-04-28T04:13:15.251Z,100779.13
2023-04-28T04:15:41.743Z,100764.13
2023-04-28T04:18:08.362Z,100771.25
2023-04-28T04:20:34.869Z,100778.34
2023-04-28T04:23:02.017Z,100761.72
2023-04-28T04:25:28.593Z,100769.25
2023-04-28T04:27:55.121Z,100763.72
2023-04-28T04:30:21.715Z,100760.16
2023-04-28T04:32:48.494Z,100759.34
2023-04-28T04:35:15.052Z,100755.81
2023-04-28T04:37:41.526Z,100775.16
2023-04-28T04:40:08.864Z,100778.72
2023-04-28T04:42:35.554Z,100778.34
2023-04-28T04:45:02.074Z,100766.47
2023-04-28T04:47:28.696Z,100762.13
2023-04-28T04:49:55.247Z,100774.00
2023-04-28T04:52:21.724Z,100773.19
2023-04-28T04:54:48.251Z,100766.88
2023-04-28T04:57:14.753Z,100769.63
2023-04-28T04:59:41.467Z,100778.34
2023-04-28T05:02:08.161Z,100767.66
2023-04-28T05:04:34.883Z,100769.63
2023-04-28T05:07:01.399Z,100777.16
2023-04-28T05:09:29.044Z,100766.44
2023-04-28T05:11:56.026Z,100764.50
2023-04-28T05:14:22.453Z,100779.47
2023-04-28T05:16:49.422Z,100776.72
2023-04-28T05:19:16.327Z,100763.28
2023-04-28T05:21:42.892Z,100756.94
2023-04-28T05:24:09.316Z,100750.63
2023-04-28T05:26:36.718Z,100753.75
2023-04-28T05:29:03.184Z,100755.38
2023-04-28T05:31:29.692Z,100746.66
2023-04-28T05:33:56.228Z,100744.66
2023-04-28T05:36:22.690Z,100743.88
2023-04-28T05:38:49.245Z,100750.19
2023-04-28T05:41:15.905Z,100749.00
2023-04-28T05:43:42.653Z,100748.97
2023-04-28T05:46:18.146Z,100739.84
2023-04-28T05:48:48.710Z,100745.41
2023-04-28T05:51:15.171Z,100743.38
2023-04-28T05:53:41.871Z,100739.03
2023-04-28T05:56:08.421Z,100725.91
2023-04-28T05:58:35.074Z,100729.09
2023-04-28T06:01:01.571Z,100733.03
2023-04-28T06:03:28.331Z,100733.81
2023-04-28T06:05:55.047Z,100725.47
2023-04-28T06:08:21.547Z,100736.56
2023-04-28T06:10:48.017Z,100732.97
2023-04-28T06:13:14.818Z,100729.00
2023-04-28T06:15:41.521Z,100727.44
2023-04-28T06:18:09.709Z,100732.19
2023-04-28T06:20:36.355Z,100723.47
2023-04-28T06:23:03.389Z,100729.00
2023-04-28T06:25:29.920Z,100726.59
2023-04-28T06:27:56.544Z,100725.78
2023-04-28T06:30:24.120Z,100716.25
2023-04-28T06:32:50.828Z,100707.53
2023-04-28T06:35:17.338Z,100715.81
2023-04-28T06:37:43.869Z,100710.66
2023-04-28T06:40:11.240Z,100714.94
2023-04-28T06:42:37.728Z,100712.13
2023-04-28T06:45:04.395Z,100708.16
2023-04-28T06:47:30.948Z,100706.94
2023-04-28T06:49:57.526Z,100715.19
2023-04-28T06:52:33.076Z,100712.38
2023-04-28T06:55:07.602Z,100702.81
2023-04-28T06:57:34.174Z,100700.41
2023-04-28T07:00:00.958Z,100696.00
2023-04-28T07:02:27.498Z,100691.19
2023-04-28T07:04:54.184Z,100679.25
2023-04-28T07:07:20.749Z,100681.97
2023-04-28T07:09:47.265Z,100686.19
2023-04-28T07:12:13.771Z,100686.88
2023-04-28T07:14:40.465Z,100693.91
2023-04-28T07:17:06.942Z,100683.84
2023-04-28T07:19:33.415Z,100687.22
2023-04-28T07:21:59.869Z,100680.34
2023-04-28T07:24:27.298Z,100671.50
2023-04-28T07:26:53.886Z,100689.59
2023-04-28T07:29:20.463Z,100690.25
2023-04-28T07:31:46.973Z,100692.16
2023-04-28T07:34:13.569Z,100700.31
2023-04-28T07:36:40.439Z,100700.59
2023-04-28T07:39:07.108Z,100700.00
2023-04-28T07:41:40.444Z,100693.13
2023-04-28T07:44:10.541Z,100688.16
2023-04-28T07:46:38.030Z,100693.53
2023-04-28T07:49:04.878Z,100702.88
2023-04-28T07:51:31.412Z,100708.97
2023-04-28T07:53:58.388Z,100706.00
2023-04-28T07:56:25.798Z,100701.47
2023-04-28T07:58:52.672Z,100694.97
2023-04-28T08:01:19.201Z,100695.09
2023-04-28T08:03:46.310Z,100694.09
2023-04-28T08:06:13.317Z,100702.00
2023-04-28T08:08:40.459Z,100693.41
2023-04-28T08:11:07.737Z,100689.63
2023-04-28T08:13:34.648Z,100695.00
2023-04-28T08:16:01.253Z,100691.66
2023-04-28T08:18:28.896Z,100692.63
2023-04-28T08:20:55.774Z,100684.63
2023-04-28T08:23:22.339Z,100683.97
2023-04-28T08:25:50.245Z,100680.50
2023-04-28T08:28:16.893Z,100673.72
2023-04-28T08:30:43.365Z,100683.56
2023-04-28T08:33:09.873Z,100676.69
2023-04-28T08:35:36.366Z,100679.50
2023-04-28T08:38:02.838Z,100679.72
2023-04-28T08:40:31.409Z,100670.94
2023-04-28T08:42:58.502Z,100673.84
2023-04-28T08:45:27.859Z,100670.53
2023-04-28T08:47:56.877Z,100656.19
2023-04-28T08:50:25.880Z,100658.47
2023-04-28T08:52:52.607Z,100659.34
2023-04-28T08:55:19.591Z,100657.25
2023-04-28T08:57:49.863Z,100666.34
2023-04-28T09:00:17.728Z,100653.19
2023-04-28T09:02:44.430Z,100659.44
2023-04-28T09:05:12.452Z,100650.88
2023-04-28T09:07:39.606Z,100657.84
2023-04-28T09:10:23.871Z,100655.59
2023-04-28T09:12:55.213Z,100645.06
2023-04-28T09:15:31.842Z,100646.69
2023-04-28T09:18:01.162Z,100641.72
2023-04-28T09:20:30.427Z,100638.25
2023-04-28T09:23:13.613Z,100634.53
2023-04-28T09:25:40.151Z,100637.53
2023-04-28T09:28:22.317Z,100641.84
2023-04-28T09:30:49.089Z,100649.00
2023-04-28T09:33:16.279Z,100641.06
2023-04-28T09:35:45.783Z,100649.91
2023-04-28T09:38:12.358Z,100650.09
2023-04-28T09:40:51.858Z,100643.97
2023-04-28T09:43:26.728Z,100645.72
2023-04-28T09:45:54.197Z,100661.75
2023-04-28T09:48:47.177Z,100657.28
2023-04-28T09:51:21.161Z,100656.94
2023-04-28T09:53:47.703Z,100661.31
2023-04-28T09:56:14.488Z,100654.56
2023-04-28T09:58:44.025Z,100643.53
2023-04-28T10:01:13.386Z,100636.16
2023-04-28T10:03:43.218Z,100631.66
2023-04-28T10:06:10.128Z,100634.59
2023-04-28T10:08:36.649Z,100639.47
2023-04-28T10:11:04.491Z,100636.91
2023-04-28T10:13:31.198Z,100637.81
2023-04-28T10:15:58.606Z,100647.00
2023-04-28T10:18:25.777Z,100632.44
2023-04-28T10:20:58.414Z,100639.09
2023-04-28T10:23:47.198Z,100631.72
2023-04-28T10:26:15.391Z,100632.63
2023-04-28T10:28:49.791Z,100636.03
2023-04-28T10:31:18.743Z,100631.63
2023-04-28T10:33:45.316Z,100633.22
2023-04-28T10:36:11.973Z,100633.06
2023-04-28T10:39:09.663Z,100632.72
2023-04-28T10:41:36.322Z,100621.44
2023-04-28T10:44:28.731Z,100617.41
2023-04-28T10:47:04.851Z,100627.97
2023-04-28T10:49:57.670Z,100630.84
2023-04-28T10:52:33.550Z,100627.03
2023-04-28T10:55:37.326Z,100625.72
2023-04-28T10:58:16.201Z,100628.75
2023-04-28T11:00:47.901Z,100632.31
2023-04-28T11:03:46.680Z,100624.03
2023-04-28T11:06:27.197Z,100628.06
2023-04-28T11:08:55.656Z,100629.91
2023-04-28T11:11:22.866Z,100631.56
2023-04-28T11:13:50.112Z,100627.66
2023-04-28T11:16:19.600Z,100624.94
2023-04-28T11:18:55.956Z,100618.59
2023-04-28T11:21:24.259Z,100630.19
2023-04-28T11:23:51.071Z,100624.50
2023-04-28T11:26:19.332Z,100627.41
2023-04-28T11:28:52.959Z,100622.94
2023-04-28T11:31:24.242Z,100638.06
2023-04-28T11:34:05.221Z,100626.72
2023-04-28T11:36:35.426Z,100638.25
2023-04-28T11:39:07.784Z,100640.50
2023-04-28T11:41:39.260Z,100639.56
2023-04-28T11:44:16.380Z,100637.38
2023-04-28T11:46:50.683Z,100642.69
2023-04-28T11:49:18.866Z,100652.72
2023-04-28T11:51:47.009Z,100651.56
2023-04-28T11:54:14.927Z,100655.78
2023-04-28T11:56:42.779Z,100652.13
2023-04-28T11:59:11.311Z,100643.03
2023-04-28T12:02:02.917Z,100660.66
2023-04-28T12:04:43.530Z,100651.56
2023-04-28T12:07:14.111Z,100651.22
2023-04-28T12:09:44.633Z,100664.13
2023-04-28T12:12:18.528Z,100662.47
2023-04-28T12:15:07.389Z,100657.06
2023-04-28T12:17:36.363Z,100655.97
2023-04-28T12:20:06.494Z,100664.94
2023-04-28T12:22:47.884Z,100651.31
2023-04-28T12:25:17.146Z,100655.22
2023-04-28T12:28:07.436Z,100651.34
2023-04-28T12:30:38.851Z,100658.91
2023-04-28T12:33:05.468Z,100652.47
2023-04-28T12:35:33.191Z,100655.88
2023-04-28T12:37:59.879Z,100657.69
2023-04-28T12:40:26.990Z,100649.41
2023-04-28T12:42:53.877Z,100657.63
2023-04-28T12:45:20.388Z,100650.53
2023-04-28T12:47:48.091Z,100659.59
2023-04-28T12:50:14.645Z,100649.81
2023-04-28T12:52:41.205Z,100653.22
2023-04-28T12:55:08.306Z,100654.09
2023-04-28T12:57:38.931Z,100654.38
2023-04-28T13:00:07.350Z,100658.56
2023-04-28T13:02:34.105Z,100651.81
2023-04-28T13:05:01.971Z,100644.38
2023-04-28T13:07:28.727Z,100643.09
2023-04-28T13:09:55.977Z,100637.56
2023-04-28T13:12:23.003Z,100637.41
2023-04-28T13:14:49.826Z,100627.34
2023-04-28T13:17:16.485Z,100611.13
2023-04-28T13:19:43.822Z,100601.44
2023-04-28T13:22:10.663Z,100601.03
2023-04-28T13:24:37.155Z,100600.91
2023-04-28T13:27:04.180Z,100613.47
2023-04-28T13:29:30.780Z,100606.31
2023-04-28T13:31:57.350Z,100605.44
2023-04-28T13:34:23.963Z,100603.22
2023-04-28T13:36:53.954Z,100609.47
2023-04-28T13:39:21.992Z,100595.94
2023-04-28T13:41:49.411Z,100582.81
2023-04-28T13:44:16.770Z,100582.03
2023-04-28T13:46:43.477Z,100583.66
2023-04-28T13:49:10.570Z,100582.94
2023-04-28T13:51:37.321Z,100578.47
2023-04-28T13:54:04.706Z,100574.66
2023-04-28T13:56:32.035Z,100576.41
2023-04-28T13:58:58.866Z,100566.69
2023-04-28T14:01:25.508Z,100566.91
2023-04-28T14:03:52.311Z,100570.16
2023-04-28T14:06:19.170Z,100566.72
2023-04-28T14:08:45.693Z,100571.53
2023-04-28T14:11:12.332Z,100567.06
2023-04-28T14:13:38.801Z,100564.19
2023-04-28T14:16:05.744Z,100564.09
2023-04-28T14:18:33.857Z,100557.00
2023-04-28T14:21:02.059Z,100558.22
2023-04-28T14:23:28.782Z,100560.13
2023-04-28T14:25:56.876Z,100567.78
2023-04-28T14:28:23.647Z,100557.66
2023-04-28T14:30:50.189Z,100563.72
2023-04-28T14:33:16.767Z,100560.31
2023-04-28T14:35:43.465Z,100551.22
2023-04-28T14:38:10.052Z,100558.91
2023-04-28T14:40:36.572Z,100558.56
2023-04-28T14:43:03.043Z,100555.78
2023-04-28T14:45:29.691Z,100550.75
2023-04-28T14:47:56.307Z,100554.88
2023-04-28T14:50:22.812Z,100550.88
2023-04-28T14:52:49.630Z,100548.81
2023-04-28T14:55:16.222Z,100561.97
2023-04-28T14:57:42.738Z,100565.72
2023-04-28T15:00:09.771Z,100565.19
2023-04-28T15:02:36.621Z,100563.50
2023-04-28T15:05:03.537Z,100553.84
2023-04-28T15:07:31.714Z,100554.78
2023-04-28T15:09:59.537Z,100554.84
2023-04-28T15:12:26.310Z,100556.50
2023-04-28T15:14:53.782Z,100554.03
2023-04-28T15:17:23.462Z,100555.13
2023-04-28T15:19:49.904Z,100555.16
2023-04-28T15:22:16.950Z,100557.66
2023-04-28T15:24:43.436Z,100559.34
2023-04-28T15:27:10.009Z,100566.34
2023-04-28T15:29:36.501Z,100571.78
2023-04-28T15:32:03.106Z,100574.84
2023-04-28T15:34:29.589Z,100578.28
2023-04-28T15:36:56.685Z,100581.91
2023-04-28T15:39:25.086Z,100618.56
2023-04-28T15:41:52.916Z,100616.09
2023-04-28T15:44:19.800Z,100626.50
2023-04-28T15:46:46.357Z,100619.16
2023-04-28T15:49:16.085Z,100629.91
2023-04-28T15:51:42.873Z,100617.69
2023-04-28T15:54:09.328Z,100621.91
2023-04-28T15:56:35.929Z,100639.72
2023-04-28T15:59:02.551Z,100629.31
2023-04-28T16:01:29.570Z,100625.44
2023-04-28T16:03:56.344Z,100635.88
2023-04-28T16:06:23.500Z,100638.97
2023-04-28T16:08:49.961Z,100630.59
2023-04-28T16:11:19.422Z,100627.56
2023-04-28T16:13:45.900Z,100638.44
2023-04-28T16:16:12.665Z,100644.50
2023-04-28T16:18:39.413Z,100644.72
2023-04-28T16:21:06.415Z,100644.81
2023-04-28T16:23:33.068Z,100647.50
2023-04-28T16:25:59.559Z,100643.03
2023-04-28T16:28:27.020Z,100643.59
2023-04-28T16:30:53.609Z,100648.50
2023-04-28T16:33:20.400Z,100637.78
2023-04-28T16:35:54.254Z,100656.56
2023-04-28T16:38:21.439Z,100653.66
2023-04-28T16:40:47.959Z,100654.13
2023-04-28T16:43:14.583Z,100649.41
2023-04-28T16:45:41.315Z,100654.66
2023-04-28T16:48:08.008Z,100646.59
2023-04-28T16:50:34.544Z,100645.72
2023-04-28T16:53:01.232Z,100646.28
2023-04-28T16:55:27.818Z,100643.38
2023-04-28T16:57:54.357Z,100654.66
2023-04-28T17:00:21.311Z,100655.47
2023-04-28T17:02:47.894Z,100652.31
2023-04-28T17:05:14.554Z,100661.75
2023-04-28T17:07:41.208Z,100657.81
2023-04-28T17:10:08.308Z,100659.81
2023-04-28T17:12:34.841Z,100664.88
2023-04-28T17:15:01.449Z,100670.84
2023-04-28T17:17:29.174Z,100680.69
2023-04-28T17:19:56.861Z,100685.94
2023-04-28T17:22:23.346Z,100681.59
2023-04-28T17:24:49.799Z,100689.19
2023-04-28T17:27:16.291Z,100688.78
2023-04-28T17:29:43.503Z,100693.91
2023-04-28T17:32:11.022Z,100691.38
2023-04-28T17:34:37.699Z,100686.03
2023-04-28T17:37:04.194Z,100695.09
2023-04-28T17:39:30.724Z,100696.97
2023-04-28T17:41:58.535Z,100695.91
2023-04-28T17:44:25.439Z,100701.50
2023-04-28T17:46:51.972Z,100703.03
2023-04-28T17:49:18.747Z,100696.84
2023-04-28T17:51:45.223Z,100695.66
2023-04-28T17:54:11.790Z,100700.69
2023-04-28T17:56:39.243Z,100704.97
2023-04-28T17:59:06.334Z,100707.69
2023-04-28T18:01:36.775Z,100698.25
2023-04-28T18:04:03.337Z,100705.34
2023-04-28T18:06:29.874Z,100710.38
2023-04-28T18:08:56.377Z,100708.13
2023-04-28T18:11:23.373Z,100703.66
2023-04-28T18:13:49.885Z,100717.19
2023-04-28T18:16:16.350Z,100723.13
2023-04-28T18:18:42.853Z,100728.19
2023-04-28T18:21:09.592Z,100727.59
2023-04-28T18:23:38.753Z,100732.97
2023-04-28T18:26:05.343Z,100731.16
2023-04-28T18:28:33.822Z,100731.56
2023-04-28T18:31:05.429Z,100728.84
2023-04-28T18:33:32.706Z,100733.38
2023-04-28T18:36:00.840Z,100730.31
2023-04-28T18:38:27.520Z,100737.03
2023-04-28T18:40:53.983Z,100741.19
2023-04-28T18:43:21.320Z,100739.38
2023-04-28T18:45:49.016Z,100743.78
2023-04-28T18:48:15.596Z,100741.09
2023-04-28T18:50:42.589Z,100754.06
2023-04-28T18:53:10.338Z,100745.75
2023-04-28T18:55:37.040Z,100747.41
2023-04-28T18:58:04.032Z,100751.84
2023-04-28T19:00:31.046Z,100750.91
2023-04-28T19:02:57.883Z,100754.63
2023-04-28T19:05:24.820Z,100759.13
2023-04-28T19:07:51.483Z,100760.47
2023-04-28T19:10:18.047Z,100767.72
2023-04-28T19:12:44.532Z,100759.63
2023-04-28T19:15:11.044Z,100768.47
2023-04-28T19:17:37.551Z,100767.25
2023-04-28T19:20:04.384Z,100767.56
2023-04-28T19:22:35.020Z,100769.00
2023-04-28T19:25:02.450Z,100770.50
2023-04-28T19:27:31.276Z,100780.50
2023-04-28T19:29:59.067Z,100786.44
2023-04-28T19:32:25.659Z,100786.50
2023-04-28T19:34:52.841Z,100795.00
2023-04-28T19:37:20.077Z,100784.00
2023-04-28T19:39:47.332Z,100789.84
2023-04-28T19:42:13.866Z,100787.81
2023-04-28T19:44:40.415Z,100789.50
2023-04-28T19:47:07.458Z,100778.47
2023-04-28T19:49:35.127Z,100789.38
2023-04-28T19:52:01.691Z,100786.97
2023-04-28T19:54:28.293Z,100790.25
2023-04-28T19:56:55.524Z,100788.69
2023-04-28T19:59:22.499Z,100789.56
2023-04-28T20:01:49.976Z,100799.25
2023-04-28T20:04:16.735Z,100798.81
2023-04-28T20:06:43.454Z,100794.00
2023-04-28T20:09:10.266Z,100807.66
2023-04-28T20:11:37.299Z,100810.00
2023-04-28T20:14:03.811Z,100807.72
2023-04-28T20:16:30.375Z,100809.63
2023-04-28T20:18:56.850Z,100807.41
2023-04-28T20:21:23.341Z,100800.81
2023-04-28T20:23:50.639Z,100807.19
2023-04-28T20:26:17.123Z,100804.09
2023-04-28T20:28:46.470Z,100804.41
2023-04-28T20:31:13.704Z,100802.09
2023-04-28T20:33:40.295Z,100804.56
2023-04-28T20:36:06.845Z,100806.50
2023-04-28T20:38:33.428Z,100803.81
2023-04-28T20:40:59.961Z,100805.50
2023-04-28T20:43:26.671Z,100807.72
2023-04-28T20:45:53.129Z,100813.03
2023-04-28T20:48:19.647Z,100809.66
2023-04-28T20:50:48.522Z,100805.38
2023-04-28T20:53:14.987Z,100812.50
2023-04-28T20:55:41.504Z,100810.50
2023-04-28T20:58:08.069Z,100811.34
2023-04-28T21:00:38.160Z,100822.63
2023-04-28T21:03:05.134Z,100807.44
2023-04-28T21:05:31.841Z,100820.06
2023-04-28T21:07:58.412Z,100818.50
2023-04-28T21:10:24.856Z,100808.16
2023-04-28T21:12:51.323Z,100813.72
2023-04-28T21:15:17.834Z,100816.56
2023-04-28T21:17:44.373Z,100816.66
2023-04-28T21:20:11.751Z,100812.19
2023-04-28T21:22:38.287Z,100820.19
2023-04-28T21:25:05.790Z,100817.78
2023-04-28T21:27:32.614Z,100825.03
2023-04-28T21:29:59.186Z,100819.47
2023-04-28T21:32:26.582Z,100818.72
2023-04-28T21:34:53.176Z,100831.63
2023-04-28T21:37:19.687Z,100823.47
2023-04-28T21:39:46.156Z,100830.25
2023-04-28T21:42:12.935Z,100828.22
2023-04-28T21:44:39.416Z,100833.16
2023-04-28T21:47:06.733Z,100827.94
2023-04-28T21:49:33.219Z,100836.69
2023-04-28T21:51:59.745Z,100824.31
2023-04-28T21:54:26.220Z,100836.25
2023-04-28T21:56:52.735Z,100842.56
2023-04-28T21:59:19.206Z,100840.63
2023-04-28T22:01:45.975Z,100835.19
2023-04-28T22:04:12.886Z,100839.38
2023-04-28T22:06:39.640Z,100845.31
2023-04-28T22:09:07.064Z,100836.66
2023-04-28T22:11:33.866Z,100843.09
2023-04-28T22:14:00.852Z,100844.75
2023-04-28T22:16:28.015Z,100849.16
2023-04-28T22:18:54.503Z,100847.16
2023-04-28T22:21:21.191Z,100851.53
2023-04-28T22:23:47.671Z,100851.53
2023-04-28T22:26:14.905Z,100854.03
2023-04-28T22:28:41.733Z,100854.47
2023-04-28T22:31:08.341Z,100863.59
2023-04-28T22:33:35.361Z,100858.88
2023-04-28T22:36:02.249Z,100858.03
2023-04-28T22:38:28.710Z,100861.59
2023-04-28T22:40:55.276Z,100863.97
2023-04-28T22:43:21.775Z,100851.78
2023-04-28T22:45:48.236Z,100857.56
2023-04-28T22:48:14.686Z,100868.34
2023-04-28T22:50:41.145Z,100866.28
2023-04-28T22:53:08.122Z,100869.13
2023-04-28T22:55:34.577Z,100874.31
2023-04-28T22:58:01.140Z,100869.19
2023-04-28T23:00:27.690Z,100875.63
2023-04-28T23:02:54.249Z,100872.94
2023-04-28T23:05:20.912Z,100873.25
2023-04-28T23:07:47.372Z,100878.44
2023-04-28T23:10:14.669Z,100875.75
2023-04-28T23:12:41.380Z,100887.25
2023-04-28T23:15:08.183Z,100880.91
2023-04-28T23:17:34.744Z,100878.56
2023-04-28T23:20:01.216Z,100874.19
2023-04-28T23:22:27.740Z,100881.31
2023-04-28T23:24:54.220Z,100884.09
2023-04-28T23:27:20.744Z,100885.75
2023-04-28T23:29:47.222Z,100886.53
2023-04-28T23:32:13.718Z,100891.38
2023-04-28T23:34:42.161Z,100881.84
2023-04-28T23:37:08.829Z,100895.38
2023-04-28T23:39:35.354Z,100891.47
2023-04-28T23:42:02.335Z,100889.50
2023-04-28T23:44:28.809Z,100897.75
2023-04-28T23:46:56.360Z,100893.53
2023-04-28T23:49:23.767Z,100901.84
2023-04-28T23:51:50.268Z,100887.16
2023-04-28T23:54:16.932Z,100899.41
2023-04-28T23:56:43.388Z,100901.06
2023-04-28T23:59:09.837Z,100899.81
